Itanagar, India
Current Conditions -  °F | °C
As of 11:50 PM on Thursday 30 Oct 2014 (Local Time) from VGHS Reporting Station
Haze Haze  
Wind Chill: 73°   Ceiling: Unl
Heat Index: 73°   Visibility: 2.5mi
Dew Point: 64°   Wind: 3mph
Humidity: 73%   Direction: 290°WNW
Pressure: 29.83"   Gusts: NA
Location:  27.13°N, 93.62°E
Report Text: VGHS 301850Z 29003KT 4000 HZ NSC 23/18 Q1010 NOSIG
Loading
Personal Weather Stations






























Interactive Weather Map New forecast layout! Learn more

10-Day Weather Forecast

Advertisements
Track Severe Weather on mobile